sensor_id;sensor_type;location;lat;lon;timestamp;pressure;altitude;pressure_sealevel;temperature;humidity
70943;BME280;59154;51.970;5.650;2023-08-30T00:00:04;100700;;;26.19157;57.2
70943;BME280;59154;51.970;5.650;2023-08-30T00:05:03;100700;;;26.13561;57.2
70943;BME280;59154;51.970;5.650;2023-08-30T00:10:04;100700;;;26.13561;57.2
70943;BME280;59154;51.970;5.650;2023-08-30T00:15:02;100700;;;26.12544;57.2
70943;BME280;59154;51.970;5.650;2023-08-30T00:20:03;100700;;;26.16105;57.3
70943;BME280;59154;51.970;5.650;2023-08-30T00:25:03;100700;;;26.12035;57.1
70943;BME280;59154;51.970;5.650;2023-08-30T00:30:03;100700;;;26.12035;57.1
70943;BME280;59154;51.970;5.650;2023-08-30T00:35:03;100700;;;26.13561;57.1
70943;BME280;59154;51.970;5.650;2023-08-30T00:40:04;100700;;;26.11018;56.9
70943;BME280;59154;51.970;5.650;2023-08-30T00:45:02;100700;;;26.10001;56.7
70943;BME280;59154;51.970;5.650;2023-08-30T00:50:03;100700;;;26.11018;57.1
70943;BME280;59154;51.970;5.650;2023-08-30T00:55:03;100700;;;26.08984;57.0
70943;BME280;59154;51.970;5.650;2023-08-30T01:00:05;100700;;;26.08475;56.9
70943;BME280;59154;51.970;5.650;2023-08-30T01:05:03;100700;;;26.05932;56.8
70943;BME280;59154;51.970;5.650;2023-08-30T01:10:03;100700;;;26.01863;56.8
70943;BME280;59154;51.970;5.650;2023-08-30T01:25:19;100700;;;26.03897;56.6
70943;BME280;59154;51.970;5.650;2023-08-30T01:30:05;100700;;;26.03897;56.6
70943;BME280;59154;51.970;5.650;2023-08-30T01:35:04;100700;;;26.01863;56.6
70943;BME280;59154;51.970;5.650;2023-08-30T01:40:11;100700;;;25.96267;56.6
70943;BME280;59154;51.970;5.650;2023-08-30T01:45:03;100700;;;25.96776;56.6
70943;BME280;59154;51.970;5.650;2023-08-30T01:50:03;100700;;;25.92198;56.6
70943;BME280;59154;51.970;5.650;2023-08-30T01:55:02;100700;;;25.94741;56.6
70943;BME280;59154;51.970;5.650;2023-08-30T02:00:04;100700;;;25.94233;56.7
70943;BME280;59154;51.970;5.650;2023-08-30T02:05:03;100700;;;25.90672;56.5
70943;BME280;59154;51.970;5.650;2023-08-30T02:10:08;100700;;;25.9169;56.5
70943;BME280;59154;51.970;5.650;2023-08-30T02:15:04;100700;;;25.90164;56.5
70943;BME280;59154;51.970;5.650;2023-08-30T02:20:05;100700;;;25.88129;56.6
70943;BME280;59154;51.970;5.650;2023-08-30T02:25:02;100600;;;25.85586;56.1
70943;BME280;59154;51.970;5.650;2023-08-30T02:30:03;100600;;;25.84568;56.3
70943;BME280;59154;51.970;5.650;2023-08-30T02:35:03;100600;;;25.8406;56.2
70943;BME280;59154;51.970;5.650;2023-08-30T02:40:04;100600;;;25.83551;56.2
70943;BME280;59154;51.970;5.650;2023-08-30T02:45:03;100600;;;25.84568;56.5
70943;BME280;59154;51.970;5.650;2023-08-30T02:50:03;100600;;;25.85077;56.4
70943;BME280;59154;51.970;5.650;2023-08-30T02:55:02;100600;;;25.84568;56.1
70943;BME280;59154;51.970;5.650;2023-08-30T03:00:05;100600;;;25.8406;56.3
70943;BME280;59154;51.970;5.650;2023-08-30T03:05:03;100600;;;25.82025;56.3
70943;BME280;59154;51.970;5.650;2023-08-30T03:10:03;100600;;;25.83043;56.2
70943;BME280;59154;51.970;5.650;2023-08-30T03:15:04;100600;;;25.81517;56.0
70943;BME280;59154;51.970;5.650;2023-08-30T03:20:06;100600;;;25.78973;56.1
70943;BME280;59154;51.970;5.650;2023-08-30T03:25:03;100600;;;25.77447;56.1
70943;BME280;59154;51.970;5.650;2023-08-30T03:30:04;100600;;;25.75921;56.1
70943;BME280;59154;51.970;5.650;2023-08-30T03:35:03;100600;;;25.77956;56.3
70943;BME280;59154;51.970;5.650;2023-08-30T03:40:05;100600;;;25.78465;56.0
70943;BME280;59154;51.970;5.650;2023-08-30T03:45:03;100600;;;25.73378;55.9
70943;BME280;59154;51.970;5.650;2023-08-30T03:50:04;100600;;;25.75921;55.9
70943;BME280;59154;51.970;5.650;2023-08-30T03:55:03;100500;;;25.79482;55.9
70943;BME280;59154;51.970;5.650;2023-08-30T04:00:04;100500;;;25.75413;55.8
70943;BME280;59154;51.970;5.650;2023-08-30T04:05:03;100500;;;25.7643;55.7
70943;BME280;59154;51.970;5.650;2023-08-30T04:10:03;100500;;;25.77447;55.9
70943;BME280;59154;51.970;5.650;2023-08-30T04:15:02;100500;;;25.75413;55.7
70943;BME280;59154;51.970;5.650;2023-08-30T04:20:04;100500;;;25.75413;56.1
70943;BME280;59154;51.970;5.650;2023-08-30T04:25:04;100500;;;25.7287;56.0
70943;BME280;59154;51.970;5.650;2023-08-30T04:30:03;100500;;;25.74904;56.1
70943;BME280;59154;51.970;5.650;2023-08-30T04:35:03;100500;;;25.74904;56.0
70943;BME280;59154;51.970;5.650;2023-08-30T04:40:04;100500;;;25.75921;56.4
70943;BME280;59154;51.970;5.650;2023-08-30T04:45:03;100500;;;25.78973;56.5
70943;BME280;59154;51.970;5.650;2023-08-30T04:50:04;100500;;;25.79991;56.4
70943;BME280;59154;51.970;5.650;2023-08-30T04:55:03;100500;;;25.77956;56.8
70943;BME280;59154;51.970;5.650;2023-08-30T05:00:05;100500;;;25.77956;56.3
70943;BME280;59154;51.970;5.650;2023-08-30T05:05:03;100500;;;25.73887;56.3
70943;BME280;59154;51.970;5.650;2023-08-30T05:10:04;100500;;;25.74396;56.7
70943;BME280;59154;51.970;5.650;2023-08-30T05:15:03;100500;;;25.74396;56.4
70943;BME280;59154;51.970;5.650;2023-08-30T05:20:04;100500;;;25.74396;56.5
70943;BME280;59154;51.970;5.650;2023-08-30T05:25:03;100500;;;25.77956;56.5
70943;BME280;59154;51.970;5.650;2023-08-30T05:30:03;100500;;;25.74904;56.1
70943;BME280;59154;51.970;5.650;2023-08-30T05:35:02;100500;;;25.73887;56.5
70943;BME280;59154;51.970;5.650;2023-08-30T05:40:03;100500;;;25.75413;56.6
70943;BME280;59154;51.970;5.650;2023-08-30T05:45:03;100500;;;25.7643;56.9
70943;BME280;59154;51.970;5.650;2023-08-30T05:50:03;100500;;;25.7643;56.6
70943;BME280;59154;51.970;5.650;2023-08-30T05:55:03;100500;;;25.71852;56.8
70943;BME280;59154;51.970;5.650;2023-08-30T06:00:04;100500;;;25.71344;56.5
70943;BME280;59154;51.970;5.650;2023-08-30T06:05:03;100500;;;25.73378;57.1
70943;BME280;59154;51.970;5.650;2023-08-30T06:10:03;100500;;;25.73887;57.1
70943;BME280;59154;51.970;5.650;2023-08-30T06:15:03;100500;;;25.71344;57.9
70943;BME280;59154;51.970;5.650;2023-08-30T06:20:03;100500;;;25.72361;57.8
70943;BME280;59154;51.970;5.650;2023-08-30T06:25:02;100500;;;25.63205;58.1
70943;BME280;59154;51.970;5.650;2023-08-30T06:30:03;100500;;;25.66257;58.3
70943;BME280;59154;51.970;5.650;2023-08-30T06:35:03;100500;;;25.60662;58.8
70943;BME280;59154;51.970;5.650;2023-08-30T06:40:04;100500;;;25.61171;59.1
70943;BME280;59154;51.970;5.650;2023-08-30T06:45:03;100500;;;25.54558;58.2
70943;BME280;59154;51.970;5.650;2023-08-30T06:50:03;100500;;;25.5405;58.3
70943;BME280;59154;51.970;5.650;2023-08-30T06:55:03;100500;;;25.49472;59.6
70943;BME280;59154;51.970;5.650;2023-08-30T07:00:05;100500;;;25.56593;60.6
70943;BME280;59154;51.970;5.650;2023-08-30T07:05:03;100500;;;25.67783;60.4
70943;BME280;59154;51.970;5.650;2023-08-30T07:10:05;100500;;;25.70326;60.3
70943;BME280;59154;51.970;5.650;2023-08-30T07:15:03;100400;;;25.7287;60.2
70943;BME280;59154;51.970;5.650;2023-08-30T07:20:04;100400;;;25.72361;60.4
70943;BME280;59154;51.970;5.650;2023-08-30T07:25:03;100400;;;25.64731;60.4
70943;BME280;59154;51.970;5.650;2023-08-30T07:30:03;100400;;;25.69818;60.0
70943;BME280;59154;51.970;5.650;2023-08-30T07:35:03;100400;;;25.69309;60.2
70943;BME280;59154;51.970;5.650;2023-08-30T07:40:03;100400;;;25.67783;60.1
70943;BME280;59154;51.970;5.650;2023-08-30T07:45:03;100400;;;25.69818;60.0
70943;BME280;59154;51.970;5.650;2023-08-30T07:50:04;100400;;;25.68292;60.0
70943;BME280;59154;51.970;5.650;2023-08-30T07:55:03;100400;;;25.68292;60.0
70943;BME280;59154;51.970;5.650;2023-08-30T08:25:05;100400;;;25.77447;59.8
70943;BME280;59154;51.970;5.650;2023-08-30T09:45:04;100300;;;25.67275;59.3
70943;BME280;59154;51.970;5.650;2023-08-30T09:50:04;100300;;;25.67783;59.3
70943;BME280;59154;51.970;5.650;2023-08-30T10:10:03;100300;;;25.69818;60.7
70943;BME280;59154;51.970;5.650;2023-08-30T10:15:03;100300;;;25.62697;61.2
70943;BME280;59154;51.970;5.650;2023-08-30T10:20:05;100300;;;25.64223;61.4
70943;BME280;59154;51.970;5.650;2023-08-30T10:25:06;100300;;;25.66766;61.7
70943;BME280;59154;51.970;5.650;2023-08-30T10:30:05;100300;;;25.6524;61.9
70943;BME280;59154;51.970;5.650;2023-08-30T10:35:03;100300;;;25.64223;62.2
70943;BME280;59154;51.970;5.650;2023-08-30T10:40:03;100300;;;25.63205;62.5
70943;BME280;59154;51.970;5.650;2023-08-30T10:45:05;100300;;;25.50489;63.0
70943;BME280;59154;51.970;5.650;2023-08-30T10:50:06;100300;;;25.47946;63.0
70943;BME280;59154;51.970;5.650;2023-08-30T10:56:10;100300;;;25.45911;62.9
70943;BME280;59154;51.970;5.650;2023-08-30T11:00:08;100300;;;25.36756;62.1
70943;BME280;59154;51.970;5.650;2023-08-30T11:05:06;100300;;;25.38282;61.9
70943;BME280;59154;51.970;5.650;2023-08-30T11:10:05;100300;;;25.34721;61.8
70943;BME280;59154;51.970;5.650;2023-08-30T11:25:02;100300;;;25.12341;60.5
70943;BME280;59154;51.970;5.650;2023-08-30T11:30:03;100300;;;25.05729;59.3
70943;BME280;59154;51.970;5.650;2023-08-30T11:35:03;100300;;;24.97082;60.3
70943;BME280;59154;51.970;5.650;2023-08-30T11:40:04;100300;;;24.9759;60.0
70943;BME280;59154;51.970;5.650;2023-08-30T11:45:03;100300;;;24.99625;59.2
70943;BME280;59154;51.970;5.650;2023-08-30T12:30:03;100300;;;24.98099;59.1
70943;BME280;59154;51.970;5.650;2023-08-30T12:35:03;100400;;;25.05729;58.3
70943;BME280;59154;51.970;5.650;2023-08-30T12:40:19;100400;;;25.13358;58.8
70943;BME280;59154;51.970;5.650;2023-08-30T12:45:03;100400;;;25.14884;59.3
70943;BME280;59154;51.970;5.650;2023-08-30T12:50:03;100400;;;25.15901;59.1
70943;BME280;59154;51.970;5.650;2023-08-30T12:55:02;100400;;;25.23531;59.2
70943;BME280;59154;51.970;5.650;2023-08-30T13:00:04;100400;;;25.13358;59.3
70943;BME280;59154;51.970;5.650;2023-08-30T13:05:06;100400;;;25.18953;59.0
70943;BME280;59154;51.970;5.650;2023-08-30T13:10:03;100400;;;25.19462;58.0
70943;BME280;59154;51.970;5.650;2023-08-30T13:15:02;100400;;;25.31161;59.1
70943;BME280;59154;51.970;5.650;2023-08-30T13:20:04;100400;;;25.18953;56.8
70943;BME280;59154;51.970;5.650;2023-08-30T13:25:04;100400;;;25.31161;58.7
70943;BME280;59154;51.970;5.650;2023-08-30T13:30:03;100400;;;25.33704;58.0
70943;BME280;59154;51.970;5.650;2023-08-30T13:35:02;100400;;;25.36756;57.9
70943;BME280;59154;51.970;5.650;2023-08-30T13:40:04;100400;;;25.33704;57.9
70943;BME280;59154;51.970;5.650;2023-08-30T13:45:03;100400;;;25.31161;56.6
70943;BME280;59154;51.970;5.650;2023-08-30T13:50:03;100400;;;25.22005;56.1
70943;BME280;59154;51.970;5.650;2023-08-30T13:55:02;100300;;;25.18445;55.7
70943;BME280;59154;51.970;5.650;2023-08-30T14:00:03;100400;;;25.25566;56.4
70943;BME280;59154;51.970;5.650;2023-08-30T14:05:03;100300;;;25.22005;56.5
70943;BME280;59154;51.970;5.650;2023-08-30T14:10:03;100400;;;25.23531;55.8
70943;BME280;59154;51.970;5.650;2023-08-30T15:00:05;100400;;;25.06237;55.2
70943;BME280;59154;51.970;5.650;2023-08-30T15:05:03;100400;;;25.12341;55.4
70943;BME280;59154;51.970;5.650;2023-08-30T15:10:03;100400;;;24.89961;56.2
70943;BME280;59154;51.970;5.650;2023-08-30T15:20:04;100400;;;24.95556;55.6
70943;BME280;59154;51.970;5.650;2023-08-30T15:25:03;100400;;;24.88435;55.3
70943;BME280;59154;51.970;5.650;2023-08-30T15:30:04;100400;;;25.04203;55.8
70943;BME280;59154;51.970;5.650;2023-08-30T15:35:02;100400;;;25.04203;56.3
70943;BME280;59154;51.970;5.650;2023-08-30T16:05:03;100500;;;24.95047;57.7
70943;BME280;59154;51.970;5.650;2023-08-30T16:10:03;100500;;;24.88943;58.0
70943;BME280;59154;51.970;5.650;2023-08-30T16:15:03;100500;;;24.82331;58.3
70943;BME280;59154;51.970;5.650;2023-08-30T16:20:05;100500;;;24.95047;58.0
70943;BME280;59154;51.970;5.650;2023-08-30T16:25:03;100500;;;24.91995;58.2
70943;BME280;59154;51.970;5.650;2023-08-30T16:30:04;100500;;;25.02677;58.2
70943;BME280;59154;51.970;5.650;2023-08-30T16:35:02;100500;;;25.12341;58.4
70943;BME280;59154;51.970;5.650;2023-08-30T16:40:04;100500;;;25.02168;58.4
70943;BME280;59154;51.970;5.650;2023-08-30T16:45:03;100500;;;25.07763;58.6
70943;BME280;59154;51.970;5.650;2023-08-30T16:50:03;100500;;;25.04711;58.3
70943;BME280;59154;51.970;5.650;2023-08-30T16:55:03;100500;;;25.07254;58.0
70943;BME280;59154;51.970;5.650;2023-08-30T17:00:04;100500;;;25.14884;58.0
70943;BME280;59154;51.970;5.650;2023-08-30T17:05:03;100500;;;25.19971;58.7
70943;BME280;59154;51.970;5.650;2023-08-30T17:10:03;100500;;;25.09798;58.0
70943;BME280;59154;51.970;5.650;2023-08-30T17:15:03;100500;;;25.21496;57.4
70943;BME280;59154;51.970;5.650;2023-08-30T17:20:05;100500;;;25.33195;58.2
70943;BME280;59154;51.970;5.650;2023-08-30T17:25:03;100500;;;25.49981;57.9
70943;BME280;59154;51.970;5.650;2023-08-30T17:30:03;100500;;;25.52015;58.2
70943;BME280;59154;51.970;5.650;2023-08-30T17:35:03;100500;;;25.61679;58.3
70943;BME280;59154;51.970;5.650;2023-08-30T17:40:04;100500;;;25.77447;58.0
70943;BME280;59154;51.970;5.650;2023-08-30T17:45:02;100500;;;25.85586;55.5
70943;BME280;59154;51.970;5.650;2023-08-30T17:50:04;100500;;;25.92198;56.5
70943;BME280;59154;51.970;5.650;2023-08-30T17:55:02;100500;;;25.91181;57.0
70943;BME280;59154;51.970;5.650;2023-08-30T18:00:05;100500;;;25.89655;57.5
70943;BME280;59154;51.970;5.650;2023-08-30T18:05:03;100500;;;25.82534;56.7
70943;BME280;59154;51.970;5.650;2023-08-30T18:10:04;100500;;;25.90164;57.1
70943;BME280;59154;51.970;5.650;2023-08-30T18:20:04;100500;;;25.98302;57.3
70943;BME280;59154;51.970;5.650;2023-08-30T18:25:02;100500;;;25.97793;57.5
70943;BME280;59154;51.970;5.650;2023-08-30T18:30:03;100500;;;26.00337;57.7
70943;BME280;59154;51.970;5.650;2023-08-30T18:35:02;100500;;;26.04406;57.6
70943;BME280;59154;51.970;5.650;2023-08-30T18:40:04;100500;;;26.04914;58.0
70943;BME280;59154;51.970;5.650;2023-08-30T18:45:03;100500;;;26.22208;57.7
70943;BME280;59154;51.970;5.650;2023-08-30T18:50:03;100500;;;26.22717;57.8
70943;BME280;59154;51.970;5.650;2023-08-30T18:55:02;100500;;;26.13053;58.0
70943;BME280;59154;51.970;5.650;2023-08-30T19:00:04;100600;;;26.12544;58.1
70943;BME280;59154;51.970;5.650;2023-08-30T19:05:02;100600;;;26.11527;58.0
70943;BME280;59154;51.970;5.650;2023-08-30T19:10:03;100600;;;26.1051;58.1
70943;BME280;59154;51.970;5.650;2023-08-30T19:15:03;100600;;;26.08475;58.2
70943;BME280;59154;51.970;5.650;2023-08-30T19:20:05;100600;;;26.13053;58.1
70943;BME280;59154;51.970;5.650;2023-08-30T19:25:03;100600;;;26.11527;58.0
70943;BME280;59154;51.970;5.650;2023-08-30T19:30:03;100600;;;26.1051;58.2
70943;BME280;59154;51.970;5.650;2023-08-30T19:35:03;100600;;;26.11527;58.0
70943;BME280;59154;51.970;5.650;2023-08-30T19:40:12;100600;;;26.13561;58.0
70943;BME280;59154;51.970;5.650;2023-08-30T19:45:03;100600;;;26.13053;57.9
70943;BME280;59154;51.970;5.650;2023-08-30T19:50:03;100600;;;26.13053;58.0
70943;BME280;59154;51.970;5.650;2023-08-30T19:55:02;100600;;;26.11018;58.1
70943;BME280;59154;51.970;5.650;2023-08-30T20:00:05;100600;;;26.17122;57.7
70943;BME280;59154;51.970;5.650;2023-08-30T20:05:03;100600;;;26.23734;57.7
70943;BME280;59154;51.970;5.650;2023-08-30T20:10:03;100600;;;26.19157;57.2
70943;BME280;59154;51.970;5.650;2023-08-30T20:15:02;100600;;;26.03388;56.4
70943;BME280;59154;51.970;5.650;2023-08-30T20:20:04;100600;;;26.12544;56.8
70943;BME280;59154;51.970;5.650;2023-08-30T20:25:02;100600;;;26.15596;56.7
70943;BME280;59154;51.970;5.650;2023-08-30T20:30:04;100600;;;26.15087;56.1
70943;BME280;59154;51.970;5.650;2023-08-30T20:35:03;100600;;;26.16105;56.8
70943;BME280;59154;51.970;5.650;2023-08-30T20:40:04;100600;;;26.16105;57.0
70943;BME280;59154;51.970;5.650;2023-08-30T20:45:02;100600;;;26.12035;57.0
70943;BME280;59154;51.970;5.650;2023-08-30T20:50:04;100600;;;26.13053;57.0
70943;BME280;59154;51.970;5.650;2023-08-30T20:55:03;100600;;;26.16105;57.0
70943;BME280;59154;51.970;5.650;2023-08-30T21:05:03;100600;;;26.36451;56.7
70943;BME280;59154;51.970;5.650;2023-08-30T21:25:02;100600;;;26.31364;56.3
70943;BME280;59154;51.970;5.650;2023-08-30T21:30:04;100600;;;26.27804;56.3
